createdAt,value
2023-03-07T00:01:28.342Z,98111.47
2023-03-07T00:03:56.379Z,98118.66
2023-03-07T00:06:24.634Z,98109.97
2023-03-07T00:08:53.596Z,98112.47
2023-03-07T00:11:21.138Z,98116.97
2023-03-07T00:13:48.903Z,98108.41
2023-03-07T00:16:18.386Z,98110.84
2023-03-07T00:18:47.532Z,98105.19
2023-03-07T00:21:19.841Z,98111.34
2023-03-07T00:23:47.773Z,98100.69
2023-03-07T00:26:17.462Z,98101.00
2023-03-07T00:28:47.530Z,98094.66
2023-03-07T00:31:15.044Z,98099.31
2023-03-07T00:33:42.757Z,98087.44
2023-03-07T00:36:14.866Z,98096.13
2023-03-07T00:38:43.001Z,98090.94
2023-03-07T00:41:12.323Z,98085.81
2023-03-07T00:43:40.730Z,98090.75
2023-03-07T00:46:09.376Z,98077.31
2023-03-07T00:48:39.230Z,98089.81
2023-03-07T00:51:08.857Z,98086.50
2023-03-07T00:53:37.898Z,98080.06
2023-03-07T00:56:07.821Z,98082.34
2023-03-07T00:58:36.922Z,98087.81
2023-03-07T01:01:06.589Z,98080.44
2023-03-07T01:03:35.075Z,98077.56
2023-03-07T01:06:04.862Z,98080.41
2023-03-07T01:08:32.490Z,98075.06
2023-03-07T01:11:02.484Z,98072.53
2023-03-07T01:13:30.807Z,98065.53
2023-03-07T01:16:08.233Z,98070.78
2023-03-07T01:18:35.920Z,98066.63
2023-03-07T01:21:03.417Z,98063.34
2023-03-07T01:23:30.899Z,98064.25
2023-03-07T01:25:58.415Z,98058.38
2023-03-07T01:28:27.238Z,98052.94
2023-03-07T01:30:58.713Z,98058.78
2023-03-07T01:33:26.329Z,98064.06
2023-03-07T01:35:53.935Z,98063.88
2023-03-07T01:38:21.508Z,98046.50
2023-03-07T01:40:49.032Z,98052.16
2023-03-07T01:43:24.123Z,98046.44
2023-03-07T01:46:31.930Z,98052.25
2023-03-07T01:49:04.980Z,98057.38
2023-03-07T01:51:33.750Z,98048.56
2023-03-07T01:54:02.521Z,98047.50
2023-03-07T01:56:31.311Z,98034.44
2023-03-07T01:58:58.992Z,98032.25
2023-03-07T02:01:28.266Z,98039.72
2023-03-07T02:04:01.888Z,98028.34
2023-03-07T02:06:32.790Z,98036.63
2023-03-07T02:09:01.486Z,98032.06
2023-03-07T02:11:29.089Z,98015.19
2023-03-07T02:13:56.597Z,98009.75
2023-03-07T02:16:24.118Z,98023.19
2023-03-07T02:18:51.760Z,98009.06
2023-03-07T02:21:34.780Z,98012.53
2023-03-07T02:24:12.594Z,98012.94
2023-03-07T02:26:46.187Z,98013.31
2023-03-07T02:29:14.319Z,98003.31
2023-03-07T02:31:42.520Z,98007.22
2023-03-07T02:34:24.395Z,98016.44
2023-03-07T02:36:55.833Z,97996.72
2023-03-07T02:39:28.880Z,97992.78
2023-03-07T02:42:01.838Z,97983.94
2023-03-07T02:44:29.330Z,97984.53
2023-03-07T02:46:56.781Z,97983.78
2023-03-07T02:49:24.716Z,97979.53
2023-03-07T02:51:57.418Z,97981.75
2023-03-07T02:54:25.927Z,97984.28
2023-03-07T02:56:53.538Z,97976.72
2023-03-07T02:59:22.439Z,97980.47
2023-03-07T03:01:49.968Z,97981.56
2023-03-07T03:04:17.505Z,97980.38
2023-03-07T03:06:44.958Z,97973.13
2023-03-07T03:09:12.457Z,97980.63
2023-03-07T03:11:39.923Z,97987.19
2023-03-07T03:14:07.345Z,97978.75
2023-03-07T03:16:36.368Z,97972.91
2023-03-07T03:19:04.260Z,97979.16
2023-03-07T03:21:31.677Z,97977.84
2023-03-07T03:23:59.118Z,97984.97
2023-03-07T03:26:26.681Z,97982.50
2023-03-07T03:28:55.769Z,97983.25
2023-03-07T03:31:23.275Z,97978.91
2023-03-07T03:33:53.594Z,97982.16
2023-03-07T03:36:25.452Z,97981.63
2023-03-07T03:38:53.599Z,97973.69
2023-03-07T03:41:21.143Z,97982.38
2023-03-07T03:43:48.707Z,97973.03
2023-03-07T03:46:16.946Z,97981.41
2023-03-07T03:48:44.582Z,97965.78
2023-03-07T03:51:15.367Z,97964.84
2023-03-07T03:53:43.181Z,97951.78
2023-03-07T03:56:13.136Z,97953.53
2023-03-07T03:58:40.958Z,97954.75
2023-03-07T04:01:11.024Z,97950.75
2023-03-07T04:03:40.512Z,97952.84
2023-03-07T04:06:09.689Z,97951.47
2023-03-07T04:08:39.861Z,97953.03
2023-03-07T04:11:07.829Z,97935.75
2023-03-07T04:13:36.111Z,97945.53
2023-03-07T04:16:04.095Z,97941.72
2023-03-07T04:18:31.692Z,97935.72
2023-03-07T04:20:59.246Z,97927.91
2023-03-07T04:23:26.984Z,97937.88
2023-03-07T04:25:57.667Z,97928.22
2023-03-07T04:28:26.342Z,97923.53
2023-03-07T04:30:53.985Z,97914.31
2023-03-07T04:33:21.841Z,97915.88
2023-03-07T04:35:49.403Z,97912.56
2023-03-07T04:38:16.901Z,97915.72
2023-03-07T04:40:44.364Z,97904.06
2023-03-07T04:43:13.119Z,97907.50
2023-03-07T04:45:40.602Z,97913.13
2023-03-07T04:48:08.751Z,97898.13
2023-03-07T04:50:36.274Z,97907.13
2023-03-07T04:53:03.780Z,97906.75
2023-03-07T04:55:31.222Z,97894.09
2023-03-07T04:57:58.643Z,97887.44
2023-03-07T05:00:27.533Z,97888.66
2023-03-07T05:02:58.290Z,97880.41
2023-03-07T05:05:25.746Z,97887.97
2023-03-07T05:07:53.168Z,97879.50
2023-03-07T05:10:23.356Z,97881.50
2023-03-07T05:12:50.846Z,97879.88
2023-03-07T05:15:18.489Z,97875.78
2023-03-07T05:17:47.273Z,97869.81
2023-03-07T05:20:14.852Z,97874.53
2023-03-07T05:22:42.402Z,97870.28
2023-03-07T05:25:10.327Z,97869.94
2023-03-07T05:27:37.809Z,97872.50
2023-03-07T05:30:06.689Z,97870.53
2023-03-07T05:32:34.867Z,97870.94
2023-03-07T05:35:03.774Z,97865.22
2023-03-07T05:37:31.231Z,97856.06
2023-03-07T05:39:58.727Z,97858.13
2023-03-07T05:42:26.294Z,97858.38
2023-03-07T05:44:53.943Z,97852.94
2023-03-07T05:47:21.419Z,97861.88
2023-03-07T05:49:48.875Z,97853.94
2023-03-07T05:52:17.709Z,97850.22
2023-03-07T05:54:45.183Z,97856.88
2023-03-07T05:57:12.661Z,97854.00
2023-03-07T05:59:40.135Z,97851.25
2023-03-07T06:02:07.623Z,97851.34
2023-03-07T06:04:35.118Z,97847.31
2023-03-07T06:07:03.231Z,97846.25
2023-03-07T06:09:32.161Z,97852.88
2023-03-07T06:11:59.857Z,97839.28
2023-03-07T06:14:27.328Z,97842.53
2023-03-07T06:16:54.801Z,97844.19
2023-03-07T06:19:22.268Z,97841.41
2023-03-07T06:21:49.782Z,97830.78
2023-03-07T06:24:17.240Z,97843.69
2023-03-07T06:26:46.065Z,97837.25
2023-03-07T06:29:13.752Z,97835.34
2023-03-07T06:31:41.369Z,97836.34
2023-03-07T06:34:08.851Z,97841.09
2023-03-07T06:36:36.304Z,97832.13
2023-03-07T06:39:04.201Z,97832.41
2023-03-07T06:41:31.653Z,97833.44
2023-03-07T06:44:00.537Z,97823.47
2023-03-07T06:46:28.079Z,97827.16
2023-03-07T06:48:55.558Z,97834.16
2023-03-07T06:51:23.000Z,97837.88
2023-03-07T06:53:50.570Z,97828.38
2023-03-07T06:56:18.004Z,97821.31
2023-03-07T06:58:45.464Z,97830.31
2023-03-07T07:01:18.803Z,97827.63
2023-03-07T07:03:46.307Z,97838.97
2023-03-07T07:06:13.800Z,97824.25
2023-03-07T07:08:41.520Z,97823.34
2023-03-07T07:11:08.954Z,97808.78
2023-03-07T07:13:36.478Z,97815.09
2023-03-07T07:16:08.148Z,97821.16
2023-03-07T07:18:37.007Z,97819.19
2023-03-07T07:21:05.275Z,97824.19
2023-03-07T07:23:32.740Z,97823.91
2023-03-07T07:26:08.427Z,97812.22
2023-03-07T07:28:36.076Z,97811.00
2023-03-07T07:31:04.339Z,97819.16
2023-03-07T07:33:32.091Z,97811.56
2023-03-07T07:36:01.109Z,97806.66
2023-03-07T07:38:28.575Z,97806.84
2023-03-07T07:40:56.170Z,97804.13
2023-03-07T07:43:23.625Z,97802.09
2023-03-07T07:45:51.317Z,97810.75
2023-03-07T07:48:18.788Z,97805.06
2023-03-07T07:50:46.956Z,97804.22
2023-03-07T07:53:16.903Z,97816.06
2023-03-07T07:55:45.194Z,97817.84
2023-03-07T07:58:12.626Z,97811.03
2023-03-07T08:00:40.097Z,97814.06
2023-03-07T08:03:07.602Z,97799.06
2023-03-07T08:05:35.123Z,97804.03
2023-03-07T08:08:02.709Z,97813.88
2023-03-07T08:10:31.744Z,97802.00
2023-03-07T08:12:59.213Z,97805.16
2023-03-07T08:15:26.720Z,97796.38
2023-03-07T08:17:54.296Z,97794.22
2023-03-07T08:20:25.474Z,97798.00
2023-03-07T08:22:53.048Z,97804.22
2023-03-07T08:25:23.674Z,97809.19
2023-03-07T08:27:54.919Z,97803.34
2023-03-07T08:30:23.262Z,97817.69
2023-03-07T08:32:52.454Z,97811.28
2023-03-07T08:35:20.361Z,97817.06
2023-03-07T08:37:48.979Z,97808.03
2023-03-07T08:40:17.398Z,97812.50
2023-03-07T08:42:47.521Z,97808.19
2023-03-07T08:45:16.590Z,97807.69
2023-03-07T08:47:44.073Z,97810.56
2023-03-07T08:50:12.618Z,97815.31
2023-03-07T08:52:40.106Z,97815.16
2023-03-07T08:55:08.205Z,97815.66
2023-03-07T08:57:35.669Z,97808.88
2023-03-07T09:00:03.393Z,97811.91
2023-03-07T09:02:32.216Z,97815.34
2023-03-07T09:04:59.775Z,97813.44
2023-03-07T09:07:28.408Z,97806.94
2023-03-07T09:09:55.884Z,97820.50
2023-03-07T09:12:23.677Z,97820.63
2023-03-07T09:14:51.164Z,97821.16
2023-03-07T09:17:19.048Z,97816.59
2023-03-07T09:19:47.876Z,97820.53
2023-03-07T09:22:15.423Z,97819.41
2023-03-07T09:24:43.467Z,97819.97
2023-03-07T09:27:11.615Z,97826.69
2023-03-07T09:29:39.271Z,97824.84
2023-03-07T09:32:07.005Z,97834.75
2023-03-07T09:34:34.478Z,97838.25
2023-03-07T09:37:03.360Z,97841.19
2023-03-07T09:39:30.867Z,97840.00
2023-03-07T09:42:10.505Z,97845.75
2023-03-07T09:44:54.273Z,97850.19
2023-03-07T09:47:36.704Z,97860.19
2023-03-07T09:50:12.992Z,97864.41
2023-03-07T09:52:42.391Z,97863.94
2023-03-07T09:55:14.093Z,97864.34
2023-03-07T09:57:50.139Z,97859.53
2023-03-07T10:00:22.535Z,97848.03
2023-03-07T10:02:55.283Z,97851.59
2023-03-07T10:05:32.270Z,97864.63
2023-03-07T10:08:02.609Z,97868.13
2023-03-07T10:10:37.721Z,97875.09
2023-03-07T10:13:26.729Z,97872.53
2023-03-07T10:15:56.809Z,97880.72
2023-03-07T10:18:48.898Z,97886.00
2023-03-07T10:21:28.424Z,97888.94
2023-03-07T10:24:20.501Z,97897.97
2023-03-07T10:26:55.125Z,97890.34
2023-03-07T10:29:25.741Z,97903.50
2023-03-07T10:32:02.423Z,97899.31
2023-03-07T10:34:37.875Z,97909.63
2023-03-07T10:37:16.924Z,97910.22
2023-03-07T10:39:50.565Z,97904.72
2023-03-07T10:42:25.048Z,97899.94
2023-03-07T10:44:53.000Z,97908.28
2023-03-07T10:47:22.964Z,97908.47
2023-03-07T10:49:53.533Z,97914.00
2023-03-07T10:52:35.858Z,97911.94
2023-03-07T10:55:40.007Z,97904.78
2023-03-07T10:58:16.735Z,97909.97
2023-03-07T11:00:45.333Z,97911.16
2023-03-07T11:03:31.191Z,97914.47
2023-03-07T11:06:01.243Z,97911.38
2023-03-07T11:08:31.560Z,97920.31
2023-03-07T11:11:01.772Z,97916.97
2023-03-07T11:13:29.856Z,97915.41
2023-03-07T11:16:12.052Z,97915.41
2023-03-07T11:18:42.551Z,97916.28
2023-03-07T11:21:28.333Z,97915.06
2023-03-07T11:24:02.714Z,97918.84
2023-03-07T11:26:34.456Z,97919.59
2023-03-07T11:29:07.151Z,97913.38
2023-03-07T11:31:41.351Z,97919.78
2023-03-07T11:34:28.721Z,97921.47
2023-03-07T11:36:59.010Z,97921.47
2023-03-07T11:39:35.116Z,97922.16
2023-03-07T11:42:11.725Z,97919.97
2023-03-07T11:44:48.983Z,97927.22
2023-03-07T11:47:31.945Z,97927.88
2023-03-07T11:50:15.013Z,97930.09
2023-03-07T11:53:18.100Z,97926.53
2023-03-07T11:55:55.197Z,97916.41
2023-03-07T11:58:49.951Z,97927.81
2023-03-07T12:01:32.006Z,97932.75
2023-03-07T12:04:22.336Z,97930.09
2023-03-07T12:07:04.545Z,97933.78
2023-03-07T12:09:45.113Z,97926.19
2023-03-07T12:12:27.450Z,97931.16
2023-03-07T12:15:06.604Z,97928.16
2023-03-07T12:17:44.695Z,97922.38
2023-03-07T12:20:31.776Z,97931.03
2023-03-07T12:23:08.636Z,97923.88
2023-03-07T12:25:38.966Z,97916.81
2023-03-07T12:28:12.417Z,97928.03
2023-03-07T12:30:55.272Z,97919.06
2023-03-07T12:33:30.585Z,97916.91
2023-03-07T12:36:04.855Z,97915.78
2023-03-07T12:38:39.825Z,97918.59
2023-03-07T12:41:28.070Z,97916.91
2023-03-07T12:44:00.297Z,97912.56
2023-03-07T12:46:38.750Z,97918.19
2023-03-07T12:49:16.932Z,97910.84
2023-03-07T12:51:55.830Z,97913.00
2023-03-07T12:54:30.715Z,97914.34
2023-03-07T12:57:03.658Z,97904.16
2023-03-07T12:59:35.085Z,97906.59
2023-03-07T13:02:12.022Z,97907.72
2023-03-07T13:04:42.588Z,97903.28
2023-03-07T13:07:13.282Z,97907.03
2023-03-07T13:09:43.057Z,97915.75
2023-03-07T13:12:35.747Z,97912.56
2023-03-07T13:15:05.314Z,97916.00
2023-03-07T13:18:00.504Z,97904.41
2023-03-07T13:20:40.600Z,97914.72
2023-03-07T13:23:28.992Z,97915.38
2023-03-07T13:26:01.801Z,97909.59
2023-03-07T13:28:53.571Z,97907.56
2023-03-07T13:31:44.976Z,97914.25
2023-03-07T13:34:52.505Z,97915.97
2023-03-07T13:37:51.217Z,97907.09
2023-03-07T13:40:58.488Z,97907.38
2023-03-07T13:44:01.308Z,97905.91
2023-03-07T13:46:51.668Z,97898.59
2023-03-07T13:49:42.162Z,97900.91
2023-03-07T13:52:32.894Z,97906.34
2023-03-07T13:55:02.436Z,97900.38
2023-03-07T13:57:36.838Z,97901.50
2023-03-07T14:00:05.916Z,97902.28
2023-03-07T14:02:34.940Z,97906.19
2023-03-07T14:05:04.250Z,97912.88
2023-03-07T14:07:39.440Z,97906.50
2023-03-07T14:10:21.913Z,97908.97
2023-03-07T14:13:08.114Z,97914.78
2023-03-07T14:15:47.355Z,97912.63
2023-03-07T14:18:24.678Z,97909.03
2023-03-07T14:20:59.494Z,97915.84
2023-03-07T14:23:57.251Z,97915.47
2023-03-07T14:26:33.228Z,97925.41
2023-03-07T14:29:02.295Z,97919.97
2023-03-07T14:31:32.059Z,97927.72
2023-03-07T14:33:59.631Z,97924.25
2023-03-07T14:36:30.150Z,97918.88
2023-03-07T14:39:02.892Z,97913.69
2023-03-07T14:41:40.437Z,97918.72
2023-03-07T14:44:29.385Z,97926.88
2023-03-07T14:47:06.145Z,97921.41
2023-03-07T14:49:45.430Z,97925.00
2023-03-07T14:52:28.246Z,97931.91
2023-03-07T14:55:02.672Z,97924.25
2023-03-07T14:57:33.194Z,97927.72
2023-03-07T15:00:08.689Z,97930.38
2023-03-07T15:02:36.292Z,97933.00
2023-03-07T15:05:04.571Z,97926.91
2023-03-07T15:07:36.949Z,97931.00
2023-03-07T15:10:06.463Z,97925.38
2023-03-07T15:12:34.042Z,97928.50
2023-03-07T15:15:06.560Z,97930.03
2023-03-07T15:17:43.497Z,97928.16
2023-03-07T15:20:20.251Z,97926.56
2023-03-07T15:22:48.217Z,97928.06
2023-03-07T15:25:25.338Z,97930.31
2023-03-07T15:27:59.779Z,97930.91
2023-03-07T15:30:30.724Z,97928.50
2023-03-07T15:33:23.458Z,97930.22
2023-03-07T15:36:23.709Z,97931.16
2023-03-07T15:38:52.899Z,97925.53
2023-03-07T15:41:31.551Z,97922.06
2023-03-07T15:44:18.551Z,97927.16
2023-03-07T15:46:48.507Z,97924.34
2023-03-07T15:49:21.388Z,97937.56
2023-03-07T15:51:51.714Z,97936.00
2023-03-07T15:54:28.228Z,97938.47
2023-03-07T15:57:00.030Z,97934.72
2023-03-07T15:59:31.496Z,97935.16
2023-03-07T16:01:58.993Z,97935.84
2023-03-07T16:04:36.662Z,97934.72
2023-03-07T16:07:04.738Z,97933.88
2023-03-07T16:09:32.628Z,97940.44
2023-03-07T16:12:01.760Z,97936.78
2023-03-07T16:14:31.584Z,97936.28
2023-03-07T16:17:01.698Z,97935.50
2023-03-07T16:19:29.699Z,97941.13
2023-03-07T16:21:57.182Z,97938.47
2023-03-07T16:24:24.642Z,97943.09
2023-03-07T16:26:52.226Z,97940.09
2023-03-07T16:29:23.887Z,97952.53
2023-03-07T16:31:51.345Z,97949.81
2023-03-07T16:34:20.811Z,97952.09
2023-03-07T16:36:48.764Z,97952.94
2023-03-07T16:39:18.273Z,97950.41
2023-03-07T16:41:48.113Z,97948.59
2023-03-07T16:44:16.848Z,97958.31
2023-03-07T16:46:52.276Z,97954.81
2023-03-07T16:49:20.355Z,97957.38
2023-03-07T16:52:03.025Z,97959.50
2023-03-07T16:54:32.924Z,97963.25
2023-03-07T16:57:02.280Z,97968.94
2023-03-07T16:59:35.288Z,97973.09
2023-03-07T17:02:13.992Z,97979.16
2023-03-07T17:04:43.813Z,97981.63
2023-03-07T17:07:17.063Z,97983.34
2023-03-07T17:09:44.567Z,97984.69
2023-03-07T17:12:12.600Z,97998.81
2023-03-07T17:14:40.578Z,98004.63
2023-03-07T17:17:15.288Z,98001.53
2023-03-07T17:19:42.732Z,98008.91
2023-03-07T17:22:10.384Z,98010.69
2023-03-07T17:24:37.891Z,98019.53
2023-03-07T17:27:06.258Z,98016.16
2023-03-07T17:29:39.065Z,98030.25
2023-03-07T17:32:07.451Z,98035.00
2023-03-07T17:34:37.714Z,98042.22
2023-03-07T17:37:06.248Z,98042.78
2023-03-07T17:39:34.577Z,98046.78
2023-03-07T17:42:02.384Z,98056.50
2023-03-07T17:44:30.371Z,98052.47
2023-03-07T17:46:58.825Z,98055.59
2023-03-07T17:49:32.455Z,98069.50
2023-03-07T17:52:01.261Z,98066.88
2023-03-07T17:54:28.743Z,98074.75
2023-03-07T17:56:57.087Z,98078.38
2023-03-07T17:59:24.632Z,98084.88
2023-03-07T18:01:52.118Z,98084.59
2023-03-07T18:04:19.586Z,98102.09
2023-03-07T18:06:47.027Z,98106.13
2023-03-07T18:09:18.512Z,98102.72
2023-03-07T18:11:45.955Z,98106.56
2023-03-07T18:14:13.440Z,98108.13
2023-03-07T18:16:41.176Z,98102.56
2023-03-07T18:19:20.451Z,98102.72
2023-03-07T18:21:53.092Z,98109.63
2023-03-07T18:24:26.017Z,98108.03
2023-03-07T18:26:54.430Z,98109.63
2023-03-07T18:29:22.690Z,98108.75
2023-03-07T18:31:50.518Z,98114.63
2023-03-07T18:34:18.057Z,98119.00
2023-03-07T18:36:47.723Z,98120.22
2023-03-07T18:39:15.306Z,98130.44
2023-03-07T18:41:44.130Z,98134.34
2023-03-07T18:44:11.942Z,98129.75
2023-03-07T18:46:39.445Z,98124.44
2023-03-07T18:49:07.055Z,98125.34
2023-03-07T18:51:34.518Z,98122.22
2023-03-07T18:54:03.513Z,98134.69
2023-03-07T18:56:31.447Z,98137.91
2023-03-07T18:59:00.389Z,98139.97
2023-03-07T19:01:29.932Z,98149.59
2023-03-07T19:04:00.656Z,98154.03
2023-03-07T19:06:33.342Z,98153.66
2023-03-07T19:09:02.882Z,98148.50
2023-03-07T19:11:30.878Z,98152.72
2023-03-07T19:14:00.190Z,98146.84
2023-03-07T19:16:29.144Z,98151.44
2023-03-07T19:18:59.425Z,98150.38
2023-03-07T19:21:28.543Z,98157.06
2023-03-07T19:23:57.904Z,98156.34
2023-03-07T19:26:25.433Z,98153.09
2023-03-07T19:28:54.854Z,98163.16
2023-03-07T19:31:28.835Z,98161.59
2023-03-07T19:33:56.852Z,98165.31
2023-03-07T19:36:27.283Z,98160.06
2023-03-07T19:38:58.854Z,98165.63
2023-03-07T19:41:28.766Z,98172.06
2023-03-07T19:43:57.073Z,98169.63
2023-03-07T19:46:26.187Z,98166.72
2023-03-07T19:48:53.707Z,98162.69
2023-03-07T19:51:22.900Z,98165.91
2023-03-07T19:53:50.965Z,98164.78
2023-03-07T19:56:20.574Z,98167.97
2023-03-07T19:58:48.621Z,98163.69
2023-03-07T20:01:18.578Z,98162.47
2023-03-07T20:03:48.420Z,98165.88
2023-03-07T20:06:19.757Z,98163.94
2023-03-07T20:08:48.282Z,98158.59
2023-03-07T20:11:17.226Z,98162.97
2023-03-07T20:13:46.512Z,98166.00
2023-03-07T20:16:15.118Z,98179.50
2023-03-07T20:18:43.020Z,98182.31
2023-03-07T20:21:14.115Z,98186.88
2023-03-07T20:23:44.762Z,98190.34
2023-03-07T20:26:13.918Z,98189.34
2023-03-07T20:28:41.516Z,98192.75
2023-03-07T20:31:10.398Z,98189.34
2023-03-07T20:33:38.832Z,98193.56
2023-03-07T20:36:08.826Z,98195.31
2023-03-07T20:38:38.425Z,98192.75
2023-03-07T20:41:08.024Z,98189.03
2023-03-07T20:43:35.723Z,98194.47
2023-03-07T20:46:04.613Z,98198.88
2023-03-07T20:48:32.685Z,98201.81
2023-03-07T20:51:06.119Z,98202.81
2023-03-07T20:53:33.877Z,98203.53
2023-03-07T20:56:04.143Z,98209.72
2023-03-07T20:58:32.754Z,98209.78
2023-03-07T21:01:00.925Z,98210.59
2023-03-07T21:03:29.251Z,98219.13
2023-03-07T21:05:58.060Z,98215.84
2023-03-07T21:08:26.045Z,98225.47
2023-03-07T21:11:00.447Z,98229.81
2023-03-07T21:13:30.470Z,98224.75
2023-03-07T21:16:00.488Z,98230.88
2023-03-07T21:18:28.171Z,98219.84
2023-03-07T21:20:59.130Z,98229.44
2023-03-07T21:23:26.889Z,98223.16
2023-03-07T21:25:57.864Z,98222.34
2023-03-07T21:28:25.317Z,98230.81
2023-03-07T21:31:00.167Z,98226.69
2023-03-07T21:33:27.958Z,98232.59
2023-03-07T21:35:56.776Z,98233.50
2023-03-07T21:38:24.866Z,98235.09
2023-03-07T21:40:52.453Z,98242.91
2023-03-07T21:43:19.899Z,98243.97
2023-03-07T21:45:47.574Z,98237.72
2023-03-07T21:48:17.221Z,98238.66
2023-03-07T21:50:45.761Z,98243.91
2023-03-07T21:53:13.335Z,98249.91
2023-03-07T21:55:40.791Z,98254.47
2023-03-07T21:58:08.492Z,98250.75
2023-03-07T22:00:35.971Z,98243.75
2023-03-07T22:03:03.438Z,98246.03
2023-03-07T22:05:32.265Z,98241.28
2023-03-07T22:07:59.737Z,98244.47
2023-03-07T22:10:27.251Z,98250.53
2023-03-07T22:12:54.980Z,98250.66
2023-03-07T22:15:22.463Z,98256.31
2023-03-07T22:17:49.922Z,98251.53
2023-03-07T22:20:17.710Z,98261.44
2023-03-07T22:22:46.617Z,98259.09
2023-03-07T22:25:14.117Z,98260.06
2023-03-07T22:27:43.282Z,98256.47
2023-03-07T22:30:12.055Z,98261.84
2023-03-07T22:32:39.608Z,98260.03
2023-03-07T22:35:07.982Z,98264.66
2023-03-07T22:37:35.504Z,98276.09
2023-03-07T22:40:04.709Z,98279.16
2023-03-07T22:42:32.212Z,98275.38
2023-03-07T22:44:59.648Z,98276.88
2023-03-07T22:47:29.229Z,98274.91
2023-03-07T22:49:56.738Z,98267.91
2023-03-07T22:52:24.306Z,98278.66
2023-03-07T22:54:51.771Z,98272.84
2023-03-07T22:57:20.638Z,98273.78
2023-03-07T22:59:48.510Z,98266.13
2023-03-07T23:02:16.009Z,98285.06
2023-03-07T23:04:43.562Z,98271.88
2023-03-07T23:07:11.092Z,98278.66
2023-03-07T23:09:38.603Z,98282.16
2023-03-07T23:12:06.775Z,98276.66
2023-03-07T23:14:37.116Z,98278.47
2023-03-07T23:17:04.703Z,98270.84
2023-03-07T23:19:32.245Z,98275.38
2023-03-07T23:21:59.815Z,98273.16
2023-03-07T23:24:27.315Z,98277.81
2023-03-07T23:26:54.817Z,98279.59
2023-03-07T23:29:22.393Z,98288.09
2023-03-07T23:31:51.396Z,98290.00
2023-03-07T23:34:20.812Z,98281.03
2023-03-07T23:36:48.326Z,98284.38
2023-03-07T23:39:17.312Z,98287.28
2023-03-07T23:41:44.822Z,98277.59
2023-03-07T23:44:14.485Z,98284.94
2023-03-07T23:46:42.008Z,98275.13
2023-03-07T23:49:11.589Z,98281.56
2023-03-07T23:51:39.080Z,98276.22
2023-03-07T23:54:06.659Z,98277.94
2023-03-07T23:56:34.156Z,98284.66
2023-03-07T23:59:01.666Z,98280.59
